sensor_id;sensor_type;location;lat;lon;timestamp;P1;durP1;ratioP1;P2;durP2;ratioP2
46290;SDS011;32023;44.444;26.006;2023-06-14T00:01:20;3.35;;;2.20;;
46290;SDS011;32023;44.444;26.006;2023-06-14T00:03:47;4.30;;;2.38;;
46290;SDS011;32023;44.444;26.006;2023-06-14T00:06:14;2.90;;;2.30;;
46290;SDS011;32023;44.444;26.006;2023-06-14T00:08:41;6.18;;;2.60;;
46290;SDS011;32023;44.444;26.006;2023-06-14T00:11:07;5.68;;;2.00;;
46290;SDS011;32023;44.444;26.006;2023-06-14T00:13:34;4.40;;;2.28;;
46290;SDS011;32023;44.444;26.006;2023-06-14T00:16:00;3.22;;;2.03;;
46290;SDS011;32023;44.444;26.006;2023-06-14T00:18:26;4.45;;;2.20;;
46290;SDS011;32023;44.444;26.006;2023-06-14T00:23:23;4.30;;;1.83;;
46290;SDS011;32023;44.444;26.006;2023-06-14T00:25:50;7.22;;;2.60;;
46290;SDS011;32023;44.444;26.006;2023-06-14T00:28:16;3.00;;;1.88;;
46290;SDS011;32023;44.444;26.006;2023-06-14T00:30:43;2.65;;;1.73;;
46290;SDS011;32023;44.444;26.006;2023-06-14T00:33:11;2.80;;;2.28;;
46290;SDS011;32023;44.444;26.006;2023-06-14T00:35:38;2.50;;;2.03;;
46290;SDS011;32023;44.444;26.006;2023-06-14T00:38:05;2.50;;;1.98;;
46290;SDS011;32023;44.444;26.006;2023-06-14T00:40:31;4.13;;;2.00;;
46290;SDS011;32023;44.444;26.006;2023-06-14T00:42:57;2.28;;;1.90;;
46290;SDS011;32023;44.444;26.006;2023-06-14T00:45:24;5.65;;;2.17;;
46290;SDS011;32023;44.444;26.006;2023-06-14T00:47:50;2.83;;;1.90;;
46290;SDS011;32023;44.444;26.006;2023-06-14T00:50:20;4.78;;;2.03;;
46290;SDS011;32023;44.444;26.006;2023-06-14T00:52:48;6.65;;;2.00;;
46290;SDS011;32023;44.444;26.006;2023-06-14T00:55:18;2.75;;;1.90;;
46290;SDS011;32023;44.444;26.006;2023-06-14T00:57:44;3.08;;;2.22;;
46290;SDS011;32023;44.444;26.006;2023-06-14T01:00:11;2.28;;;1.65;;
46290;SDS011;32023;44.444;26.006;2023-06-14T01:02:38;2.65;;;2.20;;
46290;SDS011;32023;44.444;26.006;2023-06-14T01:05:05;2.53;;;1.95;;
46290;SDS011;32023;44.444;26.006;2023-06-14T01:15:30;5.78;;;2.47;;
46290;SDS011;32023;44.444;26.006;2023-06-14T01:17:57;3.80;;;2.08;;
46290;SDS011;32023;44.444;26.006;2023-06-14T01:20:44;3.42;;;1.95;;
46290;SDS011;32023;44.444;26.006;2023-06-14T01:23:18;2.42;;;1.90;;
46290;SDS011;32023;44.444;26.006;2023-06-14T01:25:47;3.88;;;1.70;;
46290;SDS011;32023;44.444;26.006;2023-06-14T01:28:17;3.15;;;1.92;;
46290;SDS011;32023;44.444;26.006;2023-06-14T01:30:55;1.83;;;1.50;;
46290;SDS011;32023;44.444;26.006;2023-06-14T01:33:22;3.50;;;1.80;;
46290;SDS011;32023;44.444;26.006;2023-06-14T01:35:51;4.13;;;1.63;;
46290;SDS011;32023;44.444;26.006;2023-06-14T01:38:22;5.05;;;1.90;;
46290;SDS011;32023;44.444;26.006;2023-06-14T01:40:54;6.43;;;1.90;;
46290;SDS011;32023;44.444;26.006;2023-06-14T01:43:23;2.67;;;1.85;;
46290;SDS011;32023;44.444;26.006;2023-06-14T01:45:50;3.38;;;2.13;;
46290;SDS011;32023;44.444;26.006;2023-06-14T01:48:18;2.40;;;1.88;;
46290;SDS011;32023;44.444;26.006;2023-06-14T01:50:46;5.10;;;2.10;;
46290;SDS011;32023;44.444;26.006;2023-06-14T01:53:14;2.38;;;2.00;;
46290;SDS011;32023;44.444;26.006;2023-06-14T01:55:41;2.72;;;1.70;;
46290;SDS011;32023;44.444;26.006;2023-06-14T01:58:09;2.40;;;1.58;;
46290;SDS011;32023;44.444;26.006;2023-06-14T02:00:36;4.15;;;2.03;;
46290;SDS011;32023;44.444;26.006;2023-06-14T02:03:02;3.97;;;1.83;;
46290;SDS011;32023;44.444;26.006;2023-06-14T02:05:34;2.72;;;1.73;;
46290;SDS011;32023;44.444;26.006;2023-06-14T02:08:04;4.88;;;2.10;;
46290;SDS011;32023;44.444;26.006;2023-06-14T02:10:33;5.40;;;1.77;;
46290;SDS011;32023;44.444;26.006;2023-06-14T02:13:00;2.45;;;2.05;;
46290;SDS011;32023;44.444;26.006;2023-06-14T02:15:26;2.47;;;1.65;;
46290;SDS011;32023;44.444;26.006;2023-06-14T02:17:59;2.08;;;1.58;;
46290;SDS011;32023;44.444;26.006;2023-06-14T02:20:27;2.20;;;1.77;;
46290;SDS011;32023;44.444;26.006;2023-06-14T02:22:53;2.67;;;2.00;;
46290;SDS011;32023;44.444;26.006;2023-06-14T02:25:22;2.50;;;1.85;;
46290;SDS011;32023;44.444;26.006;2023-06-14T02:27:48;3.30;;;1.85;;
46290;SDS011;32023;44.444;26.006;2023-06-14T02:30:15;2.25;;;1.60;;
46290;SDS011;32023;44.444;26.006;2023-06-14T02:32:41;4.75;;;2.13;;
46290;SDS011;32023;44.444;26.006;2023-06-14T02:35:08;6.75;;;2.55;;
46290;SDS011;32023;44.444;26.006;2023-06-14T02:37:35;3.70;;;1.98;;
46290;SDS011;32023;44.444;26.006;2023-06-14T02:40:01;2.65;;;1.80;;
46290;SDS011;32023;44.444;26.006;2023-06-14T02:42:28;4.88;;;2.28;;
46290;SDS011;32023;44.444;26.006;2023-06-14T02:44:55;7.40;;;2.25;;
46290;SDS011;32023;44.444;26.006;2023-06-14T02:47:21;4.82;;;1.98;;
46290;SDS011;32023;44.444;26.006;2023-06-14T02:49:49;3.20;;;1.90;;
46290;SDS011;32023;44.444;26.006;2023-06-14T02:52:15;2.30;;;1.92;;
46290;SDS011;32023;44.444;26.006;2023-06-14T02:54:42;2.58;;;1.92;;
46290;SDS011;32023;44.444;26.006;2023-06-14T02:57:08;5.05;;;2.08;;
46290;SDS011;32023;44.444;26.006;2023-06-14T02:59:35;4.22;;;2.13;;
46290;SDS011;32023;44.444;26.006;2023-06-14T03:02:02;3.97;;;2.10;;
46290;SDS011;32023;44.444;26.006;2023-06-14T03:04:35;4.20;;;2.42;;
46290;SDS011;32023;44.444;26.006;2023-06-14T03:07:02;2.47;;;2.20;;
46290;SDS011;32023;44.444;26.006;2023-06-14T03:09:36;4.82;;;2.38;;
46290;SDS011;32023;44.444;26.006;2023-06-14T03:12:06;3.30;;;2.10;;
46290;SDS011;32023;44.444;26.006;2023-06-14T03:14:34;4.20;;;2.33;;
46290;SDS011;32023;44.444;26.006;2023-06-14T03:17:01;3.47;;;1.90;;
46290;SDS011;32023;44.444;26.006;2023-06-14T03:19:30;2.85;;;2.30;;
46290;SDS011;32023;44.444;26.006;2023-06-14T03:21:56;4.07;;;2.15;;
46290;SDS011;32023;44.444;26.006;2023-06-14T03:24:26;4.45;;;2.78;;
46290;SDS011;32023;44.444;26.006;2023-06-14T03:26:53;4.85;;;2.40;;
46290;SDS011;32023;44.444;26.006;2023-06-14T03:29:19;3.83;;;2.15;;
46290;SDS011;32023;44.444;26.006;2023-06-14T03:31:56;7.07;;;2.40;;
46290;SDS011;32023;44.444;26.006;2023-06-14T03:34:28;4.95;;;2.22;;
46290;SDS011;32023;44.444;26.006;2023-06-14T03:36:55;3.30;;;2.08;;
46290;SDS011;32023;44.444;26.006;2023-06-14T03:39:22;3.58;;;2.40;;
46290;SDS011;32023;44.444;26.006;2023-06-14T03:41:48;2.35;;;2.15;;
46290;SDS011;32023;44.444;26.006;2023-06-14T03:44:15;4.20;;;2.45;;
46290;SDS011;32023;44.444;26.006;2023-06-14T03:46:46;5.18;;;2.35;;
46290;SDS011;32023;44.444;26.006;2023-06-14T03:49:13;3.90;;;2.20;;
46290;SDS011;32023;44.444;26.006;2023-06-14T03:51:41;4.53;;;2.35;;
46290;SDS011;32023;44.444;26.006;2023-06-14T03:54:07;10.30;;;2.38;;
46290;SDS011;32023;44.444;26.006;2023-06-14T03:56:34;3.90;;;2.30;;
46290;SDS011;32023;44.444;26.006;2023-06-14T03:59:01;2.25;;;1.90;;
46290;SDS011;32023;44.444;26.006;2023-06-14T04:01:27;5.60;;;2.33;;
46290;SDS011;32023;44.444;26.006;2023-06-14T04:03:57;3.83;;;2.10;;
46290;SDS011;32023;44.444;26.006;2023-06-14T04:06:26;6.65;;;2.38;;
46290;SDS011;32023;44.444;26.006;2023-06-14T04:08:57;3.63;;;2.28;;
46290;SDS011;32023;44.444;26.006;2023-06-14T04:11:28;2.75;;;2.00;;
46290;SDS011;32023;44.444;26.006;2023-06-14T04:13:55;3.25;;;2.08;;
46290;SDS011;32023;44.444;26.006;2023-06-14T04:16:23;8.45;;;2.53;;
46290;SDS011;32023;44.444;26.006;2023-06-14T04:18:49;7.43;;;2.55;;
46290;SDS011;32023;44.444;26.006;2023-06-14T04:21:17;2.70;;;2.28;;
46290;SDS011;32023;44.444;26.006;2023-06-14T04:23:44;5.57;;;2.40;;
46290;SDS011;32023;44.444;26.006;2023-06-14T04:26:10;6.50;;;2.00;;
46290;SDS011;32023;44.444;26.006;2023-06-14T04:28:36;4.75;;;2.22;;
46290;SDS011;32023;44.444;26.006;2023-06-14T04:31:06;7.43;;;2.30;;
46290;SDS011;32023;44.444;26.006;2023-06-14T04:33:36;6.43;;;2.63;;
46290;SDS011;32023;44.444;26.006;2023-06-14T04:36:09;3.42;;;2.70;;
46290;SDS011;32023;44.444;26.006;2023-06-14T04:41:14;4.10;;;2.42;;
46290;SDS011;32023;44.444;26.006;2023-06-14T04:43:41;3.95;;;2.10;;
46290;SDS011;32023;44.444;26.006;2023-06-14T04:46:09;6.43;;;2.63;;
46290;SDS011;32023;44.444;26.006;2023-06-14T04:48:39;6.32;;;2.35;;
46290;SDS011;32023;44.444;26.006;2023-06-14T04:51:08;3.47;;;2.47;;
46290;SDS011;32023;44.444;26.006;2023-06-14T04:56:05;6.38;;;2.55;;
46290;SDS011;32023;44.444;26.006;2023-06-14T04:58:32;4.10;;;2.67;;
46290;SDS011;32023;44.444;26.006;2023-06-14T05:00:59;3.72;;;2.40;;
46290;SDS011;32023;44.444;26.006;2023-06-14T05:03:29;11.95;;;2.97;;
46290;SDS011;32023;44.444;26.006;2023-06-14T05:05:56;3.90;;;2.45;;
46290;SDS011;32023;44.444;26.006;2023-06-14T05:08:25;7.13;;;3.08;;
46290;SDS011;32023;44.444;26.006;2023-06-14T05:10:57;6.85;;;2.45;;
46290;SDS011;32023;44.444;26.006;2023-06-14T05:13:24;5.55;;;2.83;;
46290;SDS011;32023;44.444;26.006;2023-06-14T05:15:56;4.93;;;3.05;;
46290;SDS011;32023;44.444;26.006;2023-06-14T05:18:23;4.93;;;3.22;;
46290;SDS011;32023;44.444;26.006;2023-06-14T05:20:51;6.97;;;3.13;;
46290;SDS011;32023;44.444;26.006;2023-06-14T05:23:17;8.85;;;3.97;;
46290;SDS011;32023;44.444;26.006;2023-06-14T05:25:44;5.50;;;3.08;;
46290;SDS011;32023;44.444;26.006;2023-06-14T05:28:11;8.38;;;3.63;;
46290;SDS011;32023;44.444;26.006;2023-06-14T05:30:38;9.50;;;3.10;;
46290;SDS011;32023;44.444;26.006;2023-06-14T05:33:05;5.82;;;2.85;;
46290;SDS011;32023;44.444;26.006;2023-06-14T05:35:44;6.30;;;3.03;;
46290;SDS011;32023;44.444;26.006;2023-06-14T05:43:48;3.63;;;3.10;;
46290;SDS011;32023;44.444;26.006;2023-06-14T05:49:18;10.23;;;3.42;;
46290;SDS011;32023;44.444;26.006;2023-06-14T05:58:17;11.57;;;3.72;;
46290;SDS011;32023;44.444;26.006;2023-06-14T06:00:50;9.48;;;3.95;;
46290;SDS011;32023;44.444;26.006;2023-06-14T06:03:23;13.73;;;4.22;;
46290;SDS011;32023;44.444;26.006;2023-06-14T06:06:03;7.25;;;4.00;;
46290;SDS011;32023;44.444;26.006;2023-06-14T06:08:49;7.95;;;4.25;;
46290;SDS011;32023;44.444;26.006;2023-06-14T06:14:29;9.38;;;4.10;;
46290;SDS011;32023;44.444;26.006;2023-06-14T06:17:08;9.45;;;4.53;;
46290;SDS011;32023;44.444;26.006;2023-06-14T06:22:51;10.90;;;4.25;;
46290;SDS011;32023;44.444;26.006;2023-06-14T06:28:28;6.65;;;5.18;;
46290;SDS011;32023;44.444;26.006;2023-06-14T06:31:03;6.22;;;4.93;;
46290;SDS011;32023;44.444;26.006;2023-06-14T06:33:56;8.13;;;5.13;;
46290;SDS011;32023;44.444;26.006;2023-06-14T06:36:29;17.48;;;5.50;;
46290;SDS011;32023;44.444;26.006;2023-06-14T06:39:03;6.50;;;5.30;;
46290;SDS011;32023;44.444;26.006;2023-06-14T06:41:37;9.23;;;5.43;;
46290;SDS011;32023;44.444;26.006;2023-06-14T06:44:05;9.45;;;5.80;;
46290;SDS011;32023;44.444;26.006;2023-06-14T06:46:38;8.07;;;5.93;;
46290;SDS011;32023;44.444;26.006;2023-06-14T06:49:09;11.70;;;5.47;;
46290;SDS011;32023;44.444;26.006;2023-06-14T06:51:41;16.00;;;5.63;;
46290;SDS011;32023;44.444;26.006;2023-06-14T06:56:56;10.90;;;5.95;;
46290;SDS011;32023;44.444;26.006;2023-06-14T06:59:28;12.07;;;5.97;;
46290;SDS011;32023;44.444;26.006;2023-06-14T07:01:55;11.05;;;5.65;;
46290;SDS011;32023;44.444;26.006;2023-06-14T07:04:21;10.32;;;5.25;;
46290;SDS011;32023;44.444;26.006;2023-06-14T07:06:48;11.23;;;5.82;;
46290;SDS011;32023;44.444;26.006;2023-06-14T07:09:17;12.48;;;5.03;;
46290;SDS011;32023;44.444;26.006;2023-06-14T07:11:56;14.48;;;5.85;;
46290;SDS011;32023;44.444;26.006;2023-06-14T07:14:22;9.38;;;5.20;;
46290;SDS011;32023;44.444;26.006;2023-06-14T07:16:53;12.75;;;5.38;;
46290;SDS011;32023;44.444;26.006;2023-06-14T07:22:01;8.80;;;4.90;;
46290;SDS011;32023;44.444;26.006;2023-06-14T07:24:48;16.83;;;5.35;;
46290;SDS011;32023;44.444;26.006;2023-06-14T07:27:23;10.63;;;5.10;;
46290;SDS011;32023;44.444;26.006;2023-06-14T07:32:46;9.23;;;5.53;;
46290;SDS011;32023;44.444;26.006;2023-06-14T07:35:34;6.75;;;5.35;;
46290;SDS011;32023;44.444;26.006;2023-06-14T07:38:20;9.68;;;4.47;;
46290;SDS011;32023;44.444;26.006;2023-06-14T07:40:50;7.00;;;4.68;;
46290;SDS011;32023;44.444;26.006;2023-06-14T07:43:21;8.85;;;4.53;;
46290;SDS011;32023;44.444;26.006;2023-06-14T07:45:48;7.47;;;4.53;;
46290;SDS011;32023;44.444;26.006;2023-06-14T07:50:49;9.82;;;5.00;;
46290;SDS011;32023;44.444;26.006;2023-06-14T07:53:15;12.65;;;5.35;;
46290;SDS011;32023;44.444;26.006;2023-06-14T07:58:30;10.32;;;4.55;;
46290;SDS011;32023;44.444;26.006;2023-06-14T08:00:57;6.32;;;4.53;;
46290;SDS011;32023;44.444;26.006;2023-06-14T08:03:26;6.93;;;4.22;;
46290;SDS011;32023;44.444;26.006;2023-06-14T08:05:58;10.10;;;5.35;;
46290;SDS011;32023;44.444;26.006;2023-06-14T08:08:32;7.97;;;4.30;;
46290;SDS011;32023;44.444;26.006;2023-06-14T08:10:59;11.00;;;5.15;;
46290;SDS011;32023;44.444;26.006;2023-06-14T08:13:26;6.45;;;4.63;;
46290;SDS011;32023;44.444;26.006;2023-06-14T08:15:56;9.75;;;4.43;;
46290;SDS011;32023;44.444;26.006;2023-06-14T08:18:31;10.30;;;4.38;;
46290;SDS011;32023;44.444;26.006;2023-06-14T08:21:00;5.97;;;4.43;;
46290;SDS011;32023;44.444;26.006;2023-06-14T08:23:28;7.25;;;4.00;;
46290;SDS011;32023;44.444;26.006;2023-06-14T08:28:46;6.97;;;3.60;;
46290;SDS011;32023;44.444;26.006;2023-06-14T08:31:20;5.65;;;3.63;;
46290;SDS011;32023;44.444;26.006;2023-06-14T08:36:26;8.38;;;4.47;;
46290;SDS011;32023;44.444;26.006;2023-06-14T08:39:00;5.60;;;3.45;;
46290;SDS011;32023;44.444;26.006;2023-06-14T08:41:29;6.82;;;3.60;;
46290;SDS011;32023;44.444;26.006;2023-06-14T08:47:13;9.18;;;4.45;;
46290;SDS011;32023;44.444;26.006;2023-06-14T08:52:18;7.03;;;3.67;;
46290;SDS011;32023;44.444;26.006;2023-06-14T08:54:49;8.93;;;4.03;;
46290;SDS011;32023;44.444;26.006;2023-06-14T08:57:16;5.15;;;3.35;;
46290;SDS011;32023;44.444;26.006;2023-06-14T08:59:49;7.57;;;4.22;;
46290;SDS011;32023;44.444;26.006;2023-06-14T09:02:36;7.00;;;3.80;;
46290;SDS011;32023;44.444;26.006;2023-06-14T09:05:17;6.70;;;4.15;;
46290;SDS011;32023;44.444;26.006;2023-06-14T09:07:45;8.70;;;4.00;;
46290;SDS011;32023;44.444;26.006;2023-06-14T09:10:15;5.22;;;3.40;;
46290;SDS011;32023;44.444;26.006;2023-06-14T09:12:50;8.45;;;4.10;;
46290;SDS011;32023;44.444;26.006;2023-06-14T09:15:22;6.15;;;4.13;;
46290;SDS011;32023;44.444;26.006;2023-06-14T09:17:48;8.82;;;4.15;;
46290;SDS011;32023;44.444;26.006;2023-06-14T09:23:23;4.35;;;3.40;;
46290;SDS011;32023;44.444;26.006;2023-06-14T09:25:52;6.43;;;3.33;;
46290;SDS011;32023;44.444;26.006;2023-06-14T09:28:40;5.53;;;3.20;;
46290;SDS011;32023;44.444;26.006;2023-06-14T09:31:24;5.60;;;2.97;;
46290;SDS011;32023;44.444;26.006;2023-06-14T09:34:08;6.97;;;3.50;;
46290;SDS011;32023;44.444;26.006;2023-06-14T09:36:48;6.00;;;2.90;;
46290;SDS011;32023;44.444;26.006;2023-06-14T09:39:51;6.68;;;3.58;;
46290;SDS011;32023;44.444;26.006;2023-06-14T09:42:55;4.43;;;3.03;;
46290;SDS011;32023;44.444;26.006;2023-06-14T09:45:25;6.53;;;3.15;;
46290;SDS011;32023;44.444;26.006;2023-06-14T09:47:54;8.05;;;2.97;;
46290;SDS011;32023;44.444;26.006;2023-06-14T09:50:24;8.88;;;3.47;;
46290;SDS011;32023;44.444;26.006;2023-06-14T09:52:51;6.50;;;3.70;;
46290;SDS011;32023;44.444;26.006;2023-06-14T09:55:31;5.13;;;3.47;;
46290;SDS011;32023;44.444;26.006;2023-06-14T10:01:05;6.97;;;3.05;;
46290;SDS011;32023;44.444;26.006;2023-06-14T10:03:41;8.50;;;3.85;;
46290;SDS011;32023;44.444;26.006;2023-06-14T10:06:10;5.43;;;3.15;;
46290;SDS011;32023;44.444;26.006;2023-06-14T10:08:58;12.65;;;3.28;;
46290;SDS011;32023;44.444;26.006;2023-06-14T10:11:31;3.88;;;3.10;;
46290;SDS011;32023;44.444;26.006;2023-06-14T10:14:24;5.07;;;3.13;;
46290;SDS011;32023;44.444;26.006;2023-06-14T10:19:58;12.45;;;4.30;;
46290;SDS011;32023;44.444;26.006;2023-06-14T10:22:50;10.57;;;4.35;;
46290;SDS011;32023;44.444;26.006;2023-06-14T10:25:29;6.15;;;3.03;;
46290;SDS011;32023;44.444;26.006;2023-06-14T10:44:33;5.88;;;3.63;;
46290;SDS011;32023;44.444;26.006;2023-06-14T10:50:09;11.98;;;4.43;;
46290;SDS011;32023;44.444;26.006;2023-06-14T10:52:49;10.57;;;4.22;;
46290;SDS011;32023;44.444;26.006;2023-06-14T10:55:15;8.20;;;4.28;;
46290;SDS011;32023;44.444;26.006;2023-06-14T10:57:50;4.88;;;3.95;;
46290;SDS011;32023;44.444;26.006;2023-06-14T11:00:35;5.88;;;4.20;;
46290;SDS011;32023;44.444;26.006;2023-06-14T11:05:52;9.20;;;4.35;;
46290;SDS011;32023;44.444;26.006;2023-06-14T11:11:24;6.07;;;3.47;;
46290;SDS011;32023;44.444;26.006;2023-06-14T11:14:04;9.32;;;3.88;;
46290;SDS011;32023;44.444;26.006;2023-06-14T11:16:31;8.50;;;4.07;;
46290;SDS011;32023;44.444;26.006;2023-06-14T11:19:01;10.70;;;3.55;;
46290;SDS011;32023;44.444;26.006;2023-06-14T11:21:32;8.52;;;3.97;;
46290;SDS011;32023;44.444;26.006;2023-06-14T11:24:11;9.80;;;4.65;;
46290;SDS011;32023;44.444;26.006;2023-06-14T11:26:37;10.85;;;4.05;;
46290;SDS011;32023;44.444;26.006;2023-06-14T11:29:05;7.95;;;4.00;;
46290;SDS011;32023;44.444;26.006;2023-06-14T11:31:32;31.17;;;4.75;;
46290;SDS011;32023;44.444;26.006;2023-06-14T11:36:50;7.93;;;3.90;;
46290;SDS011;32023;44.444;26.006;2023-06-14T11:39:23;6.50;;;3.28;;
46290;SDS011;32023;44.444;26.006;2023-06-14T11:44:29;4.85;;;3.60;;
46290;SDS011;32023;44.444;26.006;2023-06-14T11:46:59;7.53;;;3.83;;
46290;SDS011;32023;44.444;26.006;2023-06-14T11:49:34;6.60;;;3.53;;
46290;SDS011;32023;44.444;26.006;2023-06-14T11:55:09;7.47;;;3.33;;
46290;SDS011;32023;44.444;26.006;2023-06-14T11:58:04;5.53;;;3.35;;
46290;SDS011;32023;44.444;26.006;2023-06-14T12:00:30;3.42;;;3.13;;
46290;SDS011;32023;44.444;26.006;2023-06-14T12:06:19;8.20;;;4.20;;
46290;SDS011;32023;44.444;26.006;2023-06-14T12:09:00;8.30;;;3.50;;
46290;SDS011;32023;44.444;26.006;2023-06-14T12:11:52;6.32;;;3.25;;
46290;SDS011;32023;44.444;26.006;2023-06-14T12:15:05;5.57;;;3.80;;
46290;SDS011;32023;44.444;26.006;2023-06-14T12:17:37;6.90;;;3.40;;
46290;SDS011;32023;44.444;26.006;2023-06-14T12:20:09;9.57;;;3.97;;
46290;SDS011;32023;44.444;26.006;2023-06-14T12:22:52;12.93;;;3.47;;
46290;SDS011;32023;44.444;26.006;2023-06-14T12:25:31;8.68;;;3.90;;
46290;SDS011;32023;44.444;26.006;2023-06-14T12:28:20;11.77;;;4.20;;
46290;SDS011;32023;44.444;26.006;2023-06-14T12:30:46;6.50;;;3.55;;
46290;SDS011;32023;44.444;26.006;2023-06-14T12:33:26;6.40;;;3.25;;
46290;SDS011;32023;44.444;26.006;2023-06-14T12:36:03;8.50;;;4.05;;
46290;SDS011;32023;44.444;26.006;2023-06-14T12:38:50;6.43;;;3.63;;
46290;SDS011;32023;44.444;26.006;2023-06-14T12:41:44;5.75;;;3.67;;
46290;SDS011;32023;44.444;26.006;2023-06-14T12:47:09;13.60;;;4.18;;
46290;SDS011;32023;44.444;26.006;2023-06-14T12:49:38;7.63;;;3.78;;
46290;SDS011;32023;44.444;26.006;2023-06-14T12:52:06;29.00;;;5.45;;
46290;SDS011;32023;44.444;26.006;2023-06-14T12:54:32;11.25;;;4.10;;
46290;SDS011;32023;44.444;26.006;2023-06-14T12:56:59;9.65;;;4.10;;
46290;SDS011;32023;44.444;26.006;2023-06-14T12:59:25;9.43;;;3.83;;
46290;SDS011;32023;44.444;26.006;2023-06-14T13:01:57;16.37;;;4.03;;
46290;SDS011;32023;44.444;26.006;2023-06-14T13:04:31;8.10;;;4.35;;
46290;SDS011;32023;44.444;26.006;2023-06-14T13:12:01;6.65;;;3.88;;
46290;SDS011;32023;44.444;26.006;2023-06-14T13:14:30;4.82;;;3.00;;
46290;SDS011;32023;44.444;26.006;2023-06-14T13:16:59;9.27;;;3.88;;
46290;SDS011;32023;44.444;26.006;2023-06-14T13:19:26;6.25;;;3.28;;
46290;SDS011;32023;44.444;26.006;2023-06-14T13:21:55;6.50;;;3.83;;
46290;SDS011;32023;44.444;26.006;2023-06-14T13:24:22;6.00;;;3.00;;
46290;SDS011;32023;44.444;26.006;2023-06-14T13:32:42;5.78;;;3.47;;
46290;SDS011;32023;44.444;26.006;2023-06-14T13:35:17;5.35;;;3.30;;
46290;SDS011;32023;44.444;26.006;2023-06-14T13:37:45;7.55;;;3.30;;
46290;SDS011;32023;44.444;26.006;2023-06-14T13:40:19;7.57;;;3.40;;
46290;SDS011;32023;44.444;26.006;2023-06-14T13:42:46;7.85;;;3.42;;
46290;SDS011;32023;44.444;26.006;2023-06-14T13:45:13;3.80;;;3.28;;
46290;SDS011;32023;44.444;26.006;2023-06-14T13:50:23;9.50;;;3.90;;
46290;SDS011;32023;44.444;26.006;2023-06-14T13:53:12;11.52;;;4.28;;
46290;SDS011;32023;44.444;26.006;2023-06-14T13:55:44;5.30;;;3.60;;
46290;SDS011;32023;44.444;26.006;2023-06-14T14:00:46;4.55;;;3.08;;
46290;SDS011;32023;44.444;26.006;2023-06-14T14:03:13;6.68;;;3.30;;
46290;SDS011;32023;44.444;26.006;2023-06-14T14:05:44;6.30;;;3.95;;
46290;SDS011;32023;44.444;26.006;2023-06-14T14:08:11;8.18;;;3.83;;
46290;SDS011;32023;44.444;26.006;2023-06-14T14:10:38;10.23;;;4.18;;
46290;SDS011;32023;44.444;26.006;2023-06-14T14:28:12;9.93;;;3.92;;
46290;SDS011;32023;44.444;26.006;2023-06-14T14:30:48;7.30;;;4.20;;
46290;SDS011;32023;44.444;26.006;2023-06-14T14:33:27;8.18;;;3.88;;
46290;SDS011;32023;44.444;26.006;2023-06-14T14:36:08;9.80;;;3.75;;
46290;SDS011;32023;44.444;26.006;2023-06-14T14:38:46;11.68;;;4.32;;
46290;SDS011;32023;44.444;26.006;2023-06-14T14:41:14;12.40;;;3.67;;
46290;SDS011;32023;44.444;26.006;2023-06-14T14:43:43;9.57;;;4.10;;
46290;SDS011;32023;44.444;26.006;2023-06-14T14:46:16;6.57;;;3.10;;
46290;SDS011;32023;44.444;26.006;2023-06-14T14:52:16;8.32;;;3.83;;
46290;SDS011;32023;44.444;26.006;2023-06-14T14:54:43;8.52;;;3.58;;
46290;SDS011;32023;44.444;26.006;2023-06-14T14:57:14;6.68;;;3.42;;
46290;SDS011;32023;44.444;26.006;2023-06-14T14:59:43;8.70;;;3.42;;
46290;SDS011;32023;44.444;26.006;2023-06-14T15:02:13;8.55;;;3.80;;
46290;SDS011;32023;44.444;26.006;2023-06-14T15:04:57;17.05;;;4.35;;
46290;SDS011;32023;44.444;26.006;2023-06-14T15:07:27;11.65;;;3.80;;
46290;SDS011;32023;44.444;26.006;2023-06-14T15:10:05;8.57;;;4.30;;
46290;SDS011;32023;44.444;26.006;2023-06-14T15:12:45;10.93;;;4.10;;
46290;SDS011;32023;44.444;26.006;2023-06-14T15:15:24;8.00;;;3.65;;
46290;SDS011;32023;44.444;26.006;2023-06-14T15:18:02;7.57;;;3.83;;
46290;SDS011;32023;44.444;26.006;2023-06-14T15:20:34;6.90;;;3.35;;
46290;SDS011;32023;44.444;26.006;2023-06-14T15:23:16;8.45;;;3.28;;
46290;SDS011;32023;44.444;26.006;2023-06-14T15:25:49;7.30;;;4.03;;
46290;SDS011;32023;44.444;26.006;2023-06-14T15:28:24;10.00;;;4.05;;
46290;SDS011;32023;44.444;26.006;2023-06-14T15:31:12;16.05;;;3.85;;
46290;SDS011;32023;44.444;26.006;2023-06-14T15:33:41;8.00;;;4.05;;
46290;SDS011;32023;44.444;26.006;2023-06-14T15:36:09;6.75;;;3.90;;
46290;SDS011;32023;44.444;26.006;2023-06-14T15:38:38;6.72;;;3.85;;
46290;SDS011;32023;44.444;26.006;2023-06-14T15:41:10;14.57;;;4.25;;
46290;SDS011;32023;44.444;26.006;2023-06-14T15:43:37;14.70;;;4.57;;
46290;SDS011;32023;44.444;26.006;2023-06-14T15:46:09;8.50;;;3.42;;
46290;SDS011;32023;44.444;26.006;2023-06-14T15:48:40;9.30;;;3.88;;
46290;SDS011;32023;44.444;26.006;2023-06-14T15:51:13;12.30;;;4.28;;
46290;SDS011;32023;44.444;26.006;2023-06-14T15:53:53;5.97;;;3.72;;
46290;SDS011;32023;44.444;26.006;2023-06-14T15:56:24;6.97;;;3.60;;
46290;SDS011;32023;44.444;26.006;2023-06-14T15:58:52;6.70;;;4.13;;
46290;SDS011;32023;44.444;26.006;2023-06-14T16:01:25;8.68;;;4.10;;
46290;SDS011;32023;44.444;26.006;2023-06-14T16:03:51;9.32;;;3.97;;
46290;SDS011;32023;44.444;26.006;2023-06-14T16:06:21;8.63;;;4.03;;
46290;SDS011;32023;44.444;26.006;2023-06-14T16:08:53;7.68;;;3.85;;
46290;SDS011;32023;44.444;26.006;2023-06-14T16:11:20;9.50;;;4.07;;
46290;SDS011;32023;44.444;26.006;2023-06-14T16:14:09;9.23;;;4.25;;
46290;SDS011;32023;44.444;26.006;2023-06-14T16:16:40;6.63;;;4.05;;
46290;SDS011;32023;44.444;26.006;2023-06-14T16:37:03;11.05;;;4.40;;
46290;SDS011;32023;44.444;26.006;2023-06-14T16:39:35;13.95;;;4.25;;
46290;SDS011;32023;44.444;26.006;2023-06-14T16:42:33;22.88;;;4.95;;
46290;SDS011;32023;44.444;26.006;2023-06-14T16:45:12;18.70;;;4.38;;
46290;SDS011;32023;44.444;26.006;2023-06-14T16:51:23;10.07;;;4.75;;
46290;SDS011;32023;44.444;26.006;2023-06-14T16:56:55;20.92;;;5.18;;
46290;SDS011;32023;44.444;26.006;2023-06-14T17:02:07;8.80;;;4.22;;
46290;SDS011;32023;44.444;26.006;2023-06-14T17:04:43;11.07;;;4.63;;
46290;SDS011;32023;44.444;26.006;2023-06-14T17:07:15;4.15;;;3.40;;
46290;SDS011;32023;44.444;26.006;2023-06-14T17:09:46;9.05;;;3.70;;
46290;SDS011;32023;44.444;26.006;2023-06-14T17:12:13;10.80;;;3.97;;
46290;SDS011;32023;44.444;26.006;2023-06-14T17:14:39;12.65;;;4.40;;
46290;SDS011;32023;44.444;26.006;2023-06-14T17:17:08;14.48;;;4.05;;
46290;SDS011;32023;44.444;26.006;2023-06-14T17:19:39;14.52;;;3.97;;
46290;SDS011;32023;44.444;26.006;2023-06-14T17:22:17;7.88;;;4.25;;
46290;SDS011;32023;44.444;26.006;2023-06-14T17:24:47;9.32;;;4.32;;
46290;SDS011;32023;44.444;26.006;2023-06-14T17:27:13;8.63;;;4.25;;
46290;SDS011;32023;44.444;26.006;2023-06-14T17:30:02;8.95;;;4.32;;
46290;SDS011;32023;44.444;26.006;2023-06-14T17:32:40;11.95;;;4.53;;
46290;SDS011;32023;44.444;26.006;2023-06-14T17:35:41;7.30;;;3.60;;
46290;SDS011;32023;44.444;26.006;2023-06-14T17:38:09;13.10;;;5.00;;
46290;SDS011;32023;44.444;26.006;2023-06-14T17:40:36;15.40;;;4.60;;
46290;SDS011;32023;44.444;26.006;2023-06-14T17:43:05;9.27;;;5.13;;
46290;SDS011;32023;44.444;26.006;2023-06-14T17:45:31;14.23;;;4.88;;
46290;SDS011;32023;44.444;26.006;2023-06-14T17:47:58;10.38;;;5.20;;
46290;SDS011;32023;44.444;26.006;2023-06-14T17:50:30;13.02;;;4.97;;
46290;SDS011;32023;44.444;26.006;2023-06-14T17:53:25;9.80;;;4.97;;